sensor_id;sensor_type;location;lat;lon;timestamp;pressure;altitude;pressure_sealevel;temperature;humidity
46015;BME280;36844;51.898;-0.874;2023-05-31T00:01:11;101733.19;;;19.06;
46015;BME280;36844;51.898;-0.874;2023-05-31T00:03:36;101712.25;;;18.93;
46015;BME280;36844;51.898;-0.874;2023-05-31T00:06:06;101727.78;;;19.06;
46015;BME280;36844;51.898;-0.874;2023-05-31T00:08:31;101752.16;;;19.13;
46015;BME280;36844;51.898;-0.874;2023-05-31T00:10:57;101737.44;;;19.04;
46015;BME280;36844;51.898;-0.874;2023-05-31T00:13:22;101739.34;;;19.03;
46015;BME280;36844;51.898;-0.874;2023-05-31T00:15:48;101737.00;;;19.02;
46015;BME280;36844;51.898;-0.874;2023-05-31T00:18:13;101737.34;;;18.97;
46015;BME280;36844;51.898;-0.874;2023-05-31T00:20:38;101741.56;;;18.94;
46015;BME280;36844;51.898;-0.874;2023-05-31T00:23:04;101731.09;;;18.89;
46015;BME280;36844;51.898;-0.874;2023-05-31T00:25:29;101730.28;;;18.85;
46015;BME280;36844;51.898;-0.874;2023-05-31T00:27:54;101755.19;;;19.05;
46015;BME280;36844;51.898;-0.874;2023-05-31T00:30:20;101738.16;;;18.97;
46015;BME280;36844;51.898;-0.874;2023-05-31T00:32:46;101729.94;;;18.90;
46015;BME280;36844;51.898;-0.874;2023-05-31T00:35:11;101747.44;;;19.03;
46015;BME280;36844;51.898;-0.874;2023-05-31T00:37:36;101741.56;;;18.94;
46015;BME280;36844;51.898;-0.874;2023-05-31T00:40:03;101728.41;;;18.89;
46015;BME280;36844;51.898;-0.874;2023-05-31T00:42:31;101749.72;;;19.01;
46015;BME280;36844;51.898;-0.874;2023-05-31T00:44:56;101735.34;;;18.90;
46015;BME280;36844;51.898;-0.874;2023-05-31T00:47:22;101737.31;;;18.93;
46015;BME280;36844;51.898;-0.874;2023-05-31T00:49:47;101735.75;;;18.92;
46015;BME280;36844;51.898;-0.874;2023-05-31T00:52:12;101715.56;;;18.79;
46015;BME280;36844;51.898;-0.874;2023-05-31T00:54:38;101731.50;;;18.91;
46015;BME280;36844;51.898;-0.874;2023-05-31T00:57:03;101729.53;;;18.88;
46015;BME280;36844;51.898;-0.874;2023-05-31T00:59:30;101716.75;;;18.82;
46015;BME280;36844;51.898;-0.874;2023-05-31T01:01:57;101733.88;;;18.96;
46015;BME280;36844;51.898;-0.874;2023-05-31T01:04:22;101694.22;;;18.70;
46015;BME280;36844;51.898;-0.874;2023-05-31T01:06:48;101716.38;;;18.83;
46015;BME280;36844;51.898;-0.874;2023-05-31T01:09:15;101655.44;;;18.45;
46015;BME280;36844;51.898;-0.874;2023-05-31T01:12:01;101732.25;;;18.92;
46015;BME280;36844;51.898;-0.874;2023-05-31T01:14:52;101736.91;;;18.91;
46015;BME280;36844;51.898;-0.874;2023-05-31T01:20:17;101738.78;;;18.87;
46015;BME280;36844;51.898;-0.874;2023-05-31T01:25:55;101740.72;;;18.87;
46015;BME280;36844;51.898;-0.874;2023-05-31T01:28:24;101740.63;;;18.80;
46015;BME280;36844;51.898;-0.874;2023-05-31T01:30:50;101732.91;;;18.78;
46015;BME280;36844;51.898;-0.874;2023-05-31T01:33:17;101718.50;;;18.67;
46015;BME280;36844;51.898;-0.874;2023-05-31T01:35:43;101743.78;;;18.85;
46015;BME280;36844;51.898;-0.874;2023-05-31T01:38:08;101735.25;;;18.80;
46015;BME280;36844;51.898;-0.874;2023-05-31T01:40:34;101708.09;;;18.65;
46015;BME280;36844;51.898;-0.874;2023-05-31T01:43:01;101732.91;;;18.78;
46015;BME280;36844;51.898;-0.874;2023-05-31T01:45:28;101727.50;;;18.78;
46015;BME280;36844;51.898;-0.874;2023-05-31T01:47:58;101725.97;;;18.77;
46015;BME280;36844;51.898;-0.874;2023-05-31T01:50:25;101730.22;;;18.78;
46015;BME280;36844;51.898;-0.874;2023-05-31T01:52:50;101732.91;;;18.78;
46015;BME280;36844;51.898;-0.874;2023-05-31T01:55:16;101740.66;;;18.83;
46015;BME280;36844;51.898;-0.874;2023-05-31T01:57:42;101709.66;;;18.66;
46015;BME280;36844;51.898;-0.874;2023-05-31T02:00:09;101689.47;;;18.57;
46015;BME280;36844;51.898;-0.874;2023-05-31T02:02:39;101719.00;;;18.76;
46015;BME280;36844;51.898;-0.874;2023-05-31T02:05:08;101713.63;;;18.80;
46015;BME280;36844;51.898;-0.874;2023-05-31T02:07:37;101712.78;;;18.72;
46015;BME280;36844;51.898;-0.874;2023-05-31T02:10:03;101680.22;;;18.54;
46015;BME280;36844;51.898;-0.874;2023-05-31T02:12:29;101707.38;;;18.72;
46015;BME280;36844;51.898;-0.874;2023-05-31T02:14:55;101697.63;;;18.64;
46015;BME280;36844;51.898;-0.874;2023-05-31T02:17:20;101695.72;;;18.64;
46015;BME280;36844;51.898;-0.874;2023-05-31T02:19:52;101719.00;;;18.76;
46015;BME280;36844;51.898;-0.874;2023-05-31T02:22:18;101693.00;;;18.61;
46015;BME280;36844;51.898;-0.874;2023-05-31T02:24:44;101715.50;;;18.75;
46015;BME280;36844;51.898;-0.874;2023-05-31T02:27:11;101672.06;;;18.51;
46015;BME280;36844;51.898;-0.874;2023-05-31T02:29:36;101673.22;;;18.50;
46015;BME280;36844;51.898;-0.874;2023-05-31T02:32:02;101706.56;;;18.68;
46015;BME280;36844;51.898;-0.874;2023-05-31T02:34:27;101694.56;;;18.62;
46015;BME280;36844;51.898;-0.874;2023-05-31T02:36:53;101693.28;;;18.52;
46015;BME280;36844;51.898;-0.874;2023-05-31T02:39:18;101708.13;;;18.69;
46015;BME280;36844;51.898;-0.874;2023-05-31T02:41:44;101703.91;;;18.71;
46015;BME280;36844;51.898;-0.874;2023-05-31T02:44:10;101694.94;;;18.64;
46015;BME280;36844;51.898;-0.874;2023-05-31T02:46:35;101703.13;;;18.71;
46015;BME280;36844;51.898;-0.874;2023-05-31T02:49:01;101686.81;;;18.60;
46015;BME280;36844;51.898;-0.874;2023-05-31T02:51:27;101698.88;;;18.66;
46015;BME280;36844;51.898;-0.874;2023-05-31T02:53:52;101663.13;;;18.43;
46015;BME280;36844;51.898;-0.874;2023-05-31T02:56:18;101680.22;;;18.54;
46015;BME280;36844;51.898;-0.874;2023-05-31T02:58:45;101694.13;;;18.60;
46015;BME280;36844;51.898;-0.874;2023-05-31T03:01:10;101683.69;;;18.55;
46015;BME280;36844;51.898;-0.874;2023-05-31T03:03:35;101688.34;;;18.58;
46015;BME280;36844;51.898;-0.874;2023-05-31T03:06:01;101685.66;;;18.58;
46015;BME280;36844;51.898;-0.874;2023-05-31T03:08:28;101697.28;;;18.65;
46015;BME280;36844;51.898;-0.874;2023-05-31T03:10:53;101689.88;;;18.59;
46015;BME280;36844;51.898;-0.874;2023-05-31T03:13:18;101673.16;;;18.46;
46015;BME280;36844;51.898;-0.874;2023-05-31T03:15:44;101681.34;;;18.53;
46015;BME280;36844;51.898;-0.874;2023-05-31T03:18:10;101686.75;;;18.53;
46015;BME280;36844;51.898;-0.874;2023-05-31T03:20:35;101692.66;;;18.62;
46015;BME280;36844;51.898;-0.874;2023-05-31T03:23:01;101686.78;;;18.57;
46015;BME280;36844;51.898;-0.874;2023-05-31T03:25:27;101691.06;;;18.61;
46015;BME280;36844;51.898;-0.874;2023-05-31T03:27:53;101693.78;;;18.61;
46015;BME280;36844;51.898;-0.874;2023-05-31T03:30:18;101676.34;;;18.55;
46015;BME280;36844;51.898;-0.874;2023-05-31T03:32:43;101672.47;;;18.53;
46015;BME280;36844;51.898;-0.874;2023-05-31T03:35:09;101649.94;;;18.35;
46015;BME280;36844;51.898;-0.874;2023-05-31T03:37:34;101673.94;;;18.47;
46015;BME280;36844;51.898;-0.874;2023-05-31T03:40:00;101670.09;;;18.48;
46015;BME280;36844;51.898;-0.874;2023-05-31T03:42:26;101679.38;;;18.50;
46015;BME280;36844;51.898;-0.874;2023-05-31T03:44:51;101686.41;;;18.55;
46015;BME280;36844;51.898;-0.874;2023-05-31T03:47:17;101656.44;;;18.34;
46015;BME280;36844;51.898;-0.874;2023-05-31T03:49:42;101672.38;;;18.46;
46015;BME280;36844;51.898;-0.874;2023-05-31T03:52:08;101674.31;;;18.45;
46015;BME280;36844;51.898;-0.874;2023-05-31T03:54:37;101683.25;;;18.53;
46015;BME280;36844;51.898;-0.874;2023-05-31T03:57:03;101666.16;;;18.38;
46015;BME280;36844;51.898;-0.874;2023-05-31T03:59:28;101680.06;;;18.44;
46015;BME280;36844;51.898;-0.874;2023-05-31T04:01:53;101658.31;;;18.30;
46015;BME280;36844;51.898;-0.874;2023-05-31T04:04:19;101671.97;;;18.44;
46015;BME280;36844;51.898;-0.874;2023-05-31T04:06:44;101635.84;;;18.19;
46015;BME280;36844;51.898;-0.874;2023-05-31T04:09:10;101690.97;;;18.51;
46015;BME280;36844;51.898;-0.874;2023-05-31T04:11:35;101682.41;;;18.45;
46015;BME280;36844;51.898;-0.874;2023-05-31T04:14:00;101683.59;;;18.48;
46015;BME280;36844;51.898;-0.874;2023-05-31T04:16:26;101678.13;;;18.41;
46015;BME280;36844;51.898;-0.874;2023-05-31T04:18:51;101685.47;;;18.44;
46015;BME280;36844;51.898;-0.874;2023-05-31T04:21:17;101680.44;;;18.42;
46015;BME280;36844;51.898;-0.874;2023-05-31T04:23:42;101681.56;;;18.38;
46015;BME280;36844;51.898;-0.874;2023-05-31T04:26:08;101679.25;;;18.40;
46015;BME280;36844;51.898;-0.874;2023-05-31T04:28:33;101693.25;;;18.49;
46015;BME280;36844;51.898;-0.874;2023-05-31T04:31:00;101673.03;;;18.36;
46015;BME280;36844;51.898;-0.874;2023-05-31T04:33:25;101669.97;;;18.37;
46015;BME280;36844;51.898;-0.874;2023-05-31T04:35:54;101682.41;;;18.45;
46015;BME280;36844;51.898;-0.874;2023-05-31T04:38:22;101690.56;;;18.49;
46015;BME280;36844;51.898;-0.874;2023-05-31T04:40:52;101679.25;;;18.40;
46015;BME280;36844;51.898;-0.874;2023-05-31T04:43:19;101676.13;;;18.34;
46015;BME280;36844;51.898;-0.874;2023-05-31T04:45:45;101690.84;;;18.44;
46015;BME280;36844;51.898;-0.874;2023-05-31T04:48:10;101679.94;;;18.33;
46015;BME280;36844;51.898;-0.874;2023-05-31T04:50:36;101680.00;;;18.37;
46015;BME280;36844;51.898;-0.874;2023-05-31T04:53:02;101699.38;;;18.46;
46015;BME280;36844;51.898;-0.874;2023-05-31T04:55:28;101692.69;;;18.36;
46015;BME280;36844;51.898;-0.874;2023-05-31T04:57:53;101696.59;;;18.39;
46015;BME280;36844;51.898;-0.874;2023-05-31T05:00:19;101668.59;;;18.21;
46015;BME280;36844;51.898;-0.874;2023-05-31T05:02:44;101704.34;;;18.44;
46015;BME280;36844;51.898;-0.874;2023-05-31T05:05:11;101703.53;;;18.40;
46015;BME280;36844;51.898;-0.874;2023-05-31T05:07:36;101690.78;;;18.37;
46015;BME280;36844;51.898;-0.874;2023-05-31T05:10:02;101686.13;;;18.34;
46015;BME280;36844;51.898;-0.874;2023-05-31T05:12:28;101702.41;;;18.41;
46015;BME280;36844;51.898;-0.874;2023-05-31T05:14:54;101703.97;;;18.42;
46015;BME280;36844;51.898;-0.874;2023-05-31T05:17:19;101675.56;;;18.22;
46015;BME280;36844;51.898;-0.874;2023-05-31T05:19:45;101687.22;;;18.29;
46015;BME280;36844;51.898;-0.874;2023-05-31T05:22:11;101674.06;;;18.24;
46015;BME280;36844;51.898;-0.874;2023-05-31T05:24:36;101686.44;;;18.29;
46015;BME280;36844;51.898;-0.874;2023-05-31T05:27:01;101691.88;;;18.32;
46015;BME280;36844;51.898;-0.874;2023-05-31T05:29:27;101704.59;;;18.32;
46015;BME280;36844;51.898;-0.874;2023-05-31T05:31:53;101708.50;;;18.34;
46015;BME280;36844;51.898;-0.874;2023-05-31T05:34:19;101689.03;;;18.22;
46015;BME280;36844;51.898;-0.874;2023-05-31T05:36:45;101706.53;;;18.31;
46015;BME280;36844;51.898;-0.874;2023-05-31T05:39:11;101703.41;;;18.29;
46015;BME280;36844;51.898;-0.874;2023-05-31T05:41:36;101720.09;;;18.38;
46015;BME280;36844;51.898;-0.874;2023-05-31T05:44:02;101711.53;;;18.33;
46015;BME280;36844;51.898;-0.874;2023-05-31T05:46:27;101724.72;;;18.38;
46015;BME280;36844;51.898;-0.874;2023-05-31T05:48:53;101693.59;;;18.18;
46015;BME280;36844;51.898;-0.874;2023-05-31T05:51:19;101712.28;;;18.30;
46015;BME280;36844;51.898;-0.874;2023-05-31T05:53:44;101716.25;;;18.39;
46015;BME280;36844;51.898;-0.874;2023-05-31T05:56:10;101706.53;;;18.31;
46015;BME280;36844;51.898;-0.874;2023-05-31T05:58:37;101710.41;;;18.34;
46015;BME280;36844;51.898;-0.874;2023-05-31T06:01:02;101699.53;;;18.27;
46015;BME280;36844;51.898;-0.874;2023-05-31T06:03:28;101701.91;;;18.32;
46015;BME280;36844;51.898;-0.874;2023-05-31T06:05:55;101696.38;;;18.25;
46015;BME280;36844;51.898;-0.874;2023-05-31T06:08:20;101697.13;;;18.22;
46015;BME280;36844;51.898;-0.874;2023-05-31T06:10:46;101706.22;;;18.40;
46015;BME280;36844;51.898;-0.874;2023-05-31T06:13:11;101694.19;;;18.30;
46015;BME280;36844;51.898;-0.874;2023-05-31T06:15:37;101708.56;;;18.41;
46015;BME280;36844;51.898;-0.874;2023-05-31T06:18:02;101685.72;;;18.32;
46015;BME280;36844;51.898;-0.874;2023-05-31T06:20:28;101718.69;;;18.51;
46015;BME280;36844;51.898;-0.874;2023-05-31T06:22:54;101693.47;;;18.37;
46015;BME280;36844;51.898;-0.874;2023-05-31T06:25:20;101718.78;;;18.55;
46015;BME280;36844;51.898;-0.874;2023-05-31T06:27:46;101705.97;;;18.48;
46015;BME280;36844;51.898;-0.874;2023-05-31T06:30:12;101723.44;;;18.58;
46015;BME280;36844;51.898;-0.874;2023-05-31T06:32:38;101718.03;;;18.58;
46015;BME280;36844;51.898;-0.874;2023-05-31T06:35:04;101720.75;;;18.61;
46015;BME280;36844;51.898;-0.874;2023-05-31T06:37:30;101721.94;;;18.64;
46015;BME280;36844;51.898;-0.874;2023-05-31T06:39:56;101711.06;;;18.57;
46015;BME280;36844;51.898;-0.874;2023-05-31T06:42:21;101707.22;;;18.58;
46015;BME280;36844;51.898;-0.874;2023-05-31T06:44:47;101718.06;;;18.61;
46015;BME280;36844;51.898;-0.874;2023-05-31T06:47:13;101712.72;;;18.65;
46015;BME280;36844;51.898;-0.874;2023-05-31T06:49:38;101721.63;;;18.69;
46015;BME280;36844;51.898;-0.874;2023-05-31T06:52:04;101704.59;;;18.65;
46015;BME280;36844;51.898;-0.874;2023-05-31T06:54:34;101719.41;;;18.78;
46015;BME280;36844;51.898;-0.874;2023-05-31T06:57:00;101706.59;;;18.71;
46015;BME280;36844;51.898;-0.874;2023-05-31T06:59:25;101694.22;;;18.70;
46015;BME280;36844;51.898;-0.874;2023-05-31T07:01:51;101704.38;;;18.77;
46015;BME280;36844;51.898;-0.874;2023-05-31T07:04:17;101686.53;;;18.69;
46015;BME280;36844;51.898;-0.874;2023-05-31T07:06:43;101680.38;;;18.72;
46015;BME280;36844;51.898;-0.874;2023-05-31T07:09:08;101679.63;;;18.75;
46015;BME280;36844;51.898;-0.874;2023-05-31T07:11:33;101698.69;;;18.89;
46015;BME280;36844;51.898;-0.874;2023-05-31T07:13:59;101695.91;;;18.82;
46015;BME280;36844;51.898;-0.874;2023-05-31T07:16:28;101693.66;;;18.84;
46015;BME280;36844;51.898;-0.874;2023-05-31T07:18:55;101663.38;;;18.68;
46015;BME280;36844;51.898;-0.874;2023-05-31T07:21:20;101680.53;;;18.86;
46015;BME280;36844;51.898;-0.874;2023-05-31T07:23:46;101675.06;;;18.79;
46015;BME280;36844;51.898;-0.874;2023-05-31T07:26:11;101676.28;;;18.85;
46015;BME280;36844;51.898;-0.874;2023-05-31T07:28:36;101678.91;;;18.78;
46015;BME280;36844;51.898;-0.874;2023-05-31T07:31:02;101703.78;;;18.98;
46015;BME280;36844;51.898;-0.874;2023-05-31T07:33:27;101699.53;;;18.93;
46015;BME280;36844;51.898;-0.874;2023-05-31T07:35:53;101692.97;;;18.94;
46015;BME280;36844;51.898;-0.874;2023-05-31T07:38:18;101672.00;;;18.81;
46015;BME280;36844;51.898;-0.874;2023-05-31T07:40:43;101675.09;;;18.83;
46015;BME280;36844;51.898;-0.874;2023-05-31T07:43:08;101696.09;;;19.00;
46015;BME280;36844;51.898;-0.874;2023-05-31T07:45:36;101687.59;;;18.98;
46015;BME280;36844;51.898;-0.874;2023-05-31T07:48:03;101693.78;;;18.98;
46015;BME280;36844;51.898;-0.874;2023-05-31T07:50:29;101668.97;;;18.86;
46015;BME280;36844;51.898;-0.874;2023-05-31T07:52:55;101684.84;;;18.94;
46015;BME280;36844;51.898;-0.874;2023-05-31T07:55:20;101653.84;;;18.74;
46015;BME280;36844;51.898;-0.874;2023-05-31T07:57:45;101666.66;;;18.84;
46015;BME280;36844;51.898;-0.874;2023-05-31T08:00:11;101703.88;;;19.05;
46015;BME280;36844;51.898;-0.874;2023-05-31T08:02:39;101703.09;;;19.04;
46015;BME280;36844;51.898;-0.874;2023-05-31T08:05:04;101676.72;;;18.91;
46015;BME280;36844;51.898;-0.874;2023-05-31T08:07:30;101693.44;;;19.03;
46015;BME280;36844;51.898;-0.874;2023-05-31T08:09:56;101673.66;;;18.92;
46015;BME280;36844;51.898;-0.874;2023-05-31T08:12:21;101693.03;;;19.01;
46015;BME280;36844;51.898;-0.874;2023-05-31T08:14:46;101663.16;;;18.84;
46015;BME280;36844;51.898;-0.874;2023-05-31T08:17:12;101682.53;;;18.93;
46015;BME280;36844;51.898;-0.874;2023-05-31T08:19:38;101678.72;;;18.97;
46015;BME280;36844;51.898;-0.874;2023-05-31T08:22:03;101691.44;;;18.97;
46015;BME280;36844;51.898;-0.874;2023-05-31T08:24:29;101667.03;;;18.86;
46015;BME280;36844;51.898;-0.874;2023-05-31T08:26:55;101679.06;;;18.92;
46015;BME280;36844;51.898;-0.874;2023-05-31T08:29:22;101689.09;;;18.95;
46015;BME280;36844;51.898;-0.874;2023-05-31T08:31:47;101692.59;;;18.96;
46015;BME280;36844;51.898;-0.874;2023-05-31T08:34:13;101699.16;;;18.95;
46015;BME280;36844;51.898;-0.874;2023-05-31T08:36:39;101660.03;;;18.78;
46015;BME280;36844;51.898;-0.874;2023-05-31T08:39:06;101685.28;;;18.96;
46015;BME280;36844;51.898;-0.874;2023-05-31T08:44:19;101689.88;;;18.96;
46015;BME280;36844;51.898;-0.874;2023-05-31T08:46:45;101678.22;;;18.88;
46015;BME280;36844;51.898;-0.874;2023-05-31T08:49:13;101683.66;;;18.92;
46015;BME280;36844;51.898;-0.874;2023-05-31T08:51:43;101686.06;;;18.97;
46015;BME280;36844;51.898;-0.874;2023-05-31T08:54:09;101667.41;;;18.85;
46015;BME280;36844;51.898;-0.874;2023-05-31T08:56:36;101667.41;;;18.85;
46015;BME280;36844;51.898;-0.874;2023-05-31T08:59:03;101674.38;;;18.86;
46015;BME280;36844;51.898;-0.874;2023-05-31T09:01:29;101648.78;;;18.72;
46015;BME280;36844;51.898;-0.874;2023-05-31T09:03:55;101670.47;;;18.83;
46015;BME280;36844;51.898;-0.874;2023-05-31T09:06:21;101681.38;;;18.94;
46015;BME280;36844;51.898;-0.874;2023-05-31T09:08:46;101661.19;;;18.77;
46015;BME280;36844;51.898;-0.874;2023-05-31T09:11:12;101672.03;;;18.84;
46015;BME280;36844;51.898;-0.874;2023-05-31T09:13:38;101688.72;;;18.93;
46015;BME280;36844;51.898;-0.874;2023-05-31T09:16:04;101674.00;;;18.87;
46015;BME280;36844;51.898;-0.874;2023-05-31T09:18:36;101678.56;;;18.83;
46015;BME280;36844;51.898;-0.874;2023-05-31T09:21:10;101673.56;;;18.82;
46015;BME280;36844;51.898;-0.874;2023-05-31T09:23:36;101681.72;;;18.89;
46015;BME280;36844;51.898;-0.874;2023-05-31T09:26:05;101678.19;;;18.85;
46015;BME280;36844;51.898;-0.874;2023-05-31T09:28:31;101660.03;;;18.78;
46015;BME280;36844;51.898;-0.874;2023-05-31T09:31:04;101655.34;;;18.75;
46015;BME280;36844;51.898;-0.874;2023-05-31T09:33:37;101665.09;;;18.83;
46015;BME280;36844;51.898;-0.874;2023-05-31T09:36:04;101650.31;;;18.70;
46015;BME280;36844;51.898;-0.874;2023-05-31T09:38:33;101627.78;;;18.55;
46015;BME280;36844;51.898;-0.874;2023-05-31T09:41:18;101670.88;;;18.85;
46015;BME280;36844;51.898;-0.874;2023-05-31T09:43:45;101672.03;;;18.84;
46015;BME280;36844;51.898;-0.874;2023-05-31T09:46:16;101642.91;;;18.67;
46015;BME280;36844;51.898;-0.874;2023-05-31T09:48:44;101672.81;;;18.85;
46015;BME280;36844;51.898;-0.874;2023-05-31T09:51:11;101658.88;;;18.79;
46015;BME280;36844;51.898;-0.874;2023-05-31T09:53:44;101636.78;;;18.66;
46015;BME280;36844;51.898;-0.874;2023-05-31T09:56:10;101653.44;;;18.75;
46015;BME280;36844;51.898;-0.874;2023-05-31T09:58:36;101664.28;;;18.83;
46015;BME280;36844;51.898;-0.874;2023-05-31T10:01:03;101646.44;;;18.71;
46015;BME280;36844;51.898;-0.874;2023-05-31T10:03:29;101661.94;;;18.77;
46015;BME280;36844;51.898;-0.874;2023-05-31T10:05:56;101665.41;;;18.78;
46015;BME280;36844;51.898;-0.874;2023-05-31T10:08:22;101652.28;;;18.73;
46015;BME280;36844;51.898;-0.874;2023-05-31T10:10:48;101648.44;;;18.74;
46015;BME280;36844;51.898;-0.874;2023-05-31T10:13:14;101651.50;;;18.76;
46015;BME280;36844;51.898;-0.874;2023-05-31T10:15:42;101665.78;;;18.77;
46015;BME280;36844;51.898;-0.874;2023-05-31T10:18:15;101669.31;;;18.81;
46015;BME280;36844;51.898;-0.874;2023-05-31T10:20:49;101655.34;;;18.75;
46015;BME280;36844;51.898;-0.874;2023-05-31T10:23:19;101664.22;;;18.75;
46015;BME280;36844;51.898;-0.874;2023-05-31T10:26:14;101665.84;;;18.80;
46015;BME280;36844;51.898;-0.874;2023-05-31T10:28:50;101661.94;;;18.77;
46015;BME280;36844;51.898;-0.874;2023-05-31T10:31:22;101658.06;;;18.78;
46015;BME280;36844;51.898;-0.874;2023-05-31T10:33:53;101646.09;;;18.72;
46015;BME280;36844;51.898;-0.874;2023-05-31T10:36:19;101656.91;;;18.76;
46015;BME280;36844;51.898;-0.874;2023-05-31T10:39:05;101655.81;;;18.81;
46015;BME280;36844;51.898;-0.874;2023-05-31T10:41:38;101654.66;;;18.82;
46015;BME280;36844;51.898;-0.874;2023-05-31T10:44:11;101651.19;;;18.81;
46015;BME280;36844;51.898;-0.874;2023-05-31T10:46:39;101641.50;;;18.77;
46015;BME280;36844;51.898;-0.874;2023-05-31T10:49:08;101634.50;;;18.72;
46015;BME280;36844;51.898;-0.874;2023-05-31T10:51:38;101651.19;;;18.81;
46015;BME280;36844;51.898;-0.874;2023-05-31T10:54:04;101631.81;;;18.72;
46015;BME280;36844;51.898;-0.874;2023-05-31T10:56:30;101635.28;;;18.72;
46015;BME280;36844;51.898;-0.874;2023-05-31T10:58:57;101652.72;;;18.82;
46015;BME280;36844;51.898;-0.874;2023-05-31T11:01:28;101632.56;;;18.69;
46015;BME280;36844;51.898;-0.874;2023-05-31T11:03:54;101649.97;;;18.78;
46015;BME280;36844;51.898;-0.874;2023-05-31T11:06:26;101651.94;;;18.78;
46015;BME280;36844;51.898;-0.874;2023-05-31T11:09:03;101661.22;;;18.81;
46015;BME280;36844;51.898;-0.874;2023-05-31T11:14:07;101657.34;;;18.82;
46015;BME280;36844;51.898;-0.874;2023-05-31T11:16:33;101638.34;;;18.71;
46015;BME280;36844;51.898;-0.874;2023-05-31T11:19:20;101654.66;;;18.82;
46015;BME280;36844;51.898;-0.874;2023-05-31T11:24:50;101649.63;;;18.80;
46015;BME280;36844;51.898;-0.874;2023-05-31T11:27:18;101632.59;;;18.72;
46015;BME280;36844;51.898;-0.874;2023-05-31T11:32:16;101652.72;;;18.82;
46015;BME280;36844;51.898;-0.874;2023-05-31T11:37:13;101621.00;;;18.72;
46015;BME280;36844;51.898;-0.874;2023-05-31T11:39:43;101616.75;;;18.71;
46015;BME280;36844;51.898;-0.874;2023-05-31T11:42:10;101600.16;;;18.69;
46015;BME280;36844;51.898;-0.874;2023-05-31T11:44:41;101619.59;;;18.85;
46015;BME280;36844;51.898;-0.874;2023-05-31T11:47:10;101611.03;;;18.76;
46015;BME280;36844;51.898;-0.874;2023-05-31T11:49:35;101628.88;;;18.88;
46015;BME280;36844;51.898;-0.874;2023-05-31T11:52:02;101627.72;;;18.89;
46015;BME280;36844;51.898;-0.874;2023-05-31T11:54:29;101619.97;;;18.84;
46015;BME280;36844;51.898;-0.874;2023-05-31T11:57:03;101594.38;;;18.70;
46015;BME280;36844;51.898;-0.874;2023-05-31T11:59:30;101621.94;;;18.90;
46015;BME280;36844;51.898;-0.874;2023-05-31T12:02:01;101615.72;;;18.86;
46015;BME280;36844;51.898;-0.874;2023-05-31T12:06:56;101615.00;;;18.89;
46015;BME280;36844;51.898;-0.874;2023-05-31T12:09:27;101617.38;;;18.98;
46015;BME280;36844;51.898;-0.874;2023-05-31T12:11:54;101619.69;;;18.99;
46015;BME280;36844;51.898;-0.874;2023-05-31T12:14:21;101615.88;;;19.00;
46015;BME280;36844;51.898;-0.874;2023-05-31T12:16:47;101615.09;;;19.00;
46015;BME280;36844;51.898;-0.874;2023-05-31T12:19:14;101594.94;;;18.90;
46015;BME280;36844;51.898;-0.874;2023-05-31T12:21:41;101586.44;;;18.88;
46015;BME280;36844;51.898;-0.874;2023-05-31T12:24:14;101585.31;;;18.89;
46015;BME280;36844;51.898;-0.874;2023-05-31T12:26:41;101597.28;;;18.95;
46015;BME280;36844;51.898;-0.874;2023-05-31T12:29:08;101608.59;;;19.04;
46015;BME280;36844;51.898;-0.874;2023-05-31T12:31:36;101593.88;;;18.98;
46015;BME280;36844;51.898;-0.874;2023-05-31T12:39:11;101614.03;;;19.11;
46015;BME280;36844;51.898;-0.874;2023-05-31T12:41:37;101588.50;;;19.02;
46015;BME280;36844;51.898;-0.874;2023-05-31T12:44:03;101569.88;;;18.90;
46015;BME280;36844;51.898;-0.874;2023-05-31T12:46:36;101570.25;;;18.88;
46015;BME280;36844;51.898;-0.874;2023-05-31T12:49:13;101596.66;;;19.09;
46015;BME280;36844;51.898;-0.874;2023-05-31T12:51:39;101599.38;;;19.09;
46015;BME280;36844;51.898;-0.874;2023-05-31T12:54:25;101607.09;;;19.14;
46015;BME280;36844;51.898;-0.874;2023-05-31T12:56:52;101594.00;;;19.12;
46015;BME280;36844;51.898;-0.874;2023-05-31T12:59:17;101602.09;;;19.12;
46015;BME280;36844;51.898;-0.874;2023-05-31T13:01:43;101573.44;;;19.01;
46015;BME280;36844;51.898;-0.874;2023-05-31T13:04:10;101579.69;;;19.08;
46015;BME280;36844;51.898;-0.874;2023-05-31T13:06:37;101592.81;;;19.13;
46015;BME280;36844;51.898;-0.874;2023-05-31T13:09:03;101595.53;;;19.17;
46015;BME280;36844;51.898;-0.874;2023-05-31T13:11:39;101576.19;;;19.04;
46015;BME280;36844;51.898;-0.874;2023-05-31T13:14:07;101577.72;;;19.05;
46015;BME280;36844;51.898;-0.874;2023-05-31T13:16:34;101583.16;;;19.09;
46015;BME280;36844;51.898;-0.874;2023-05-31T13:19:01;101575.00;;;19.05;
46015;BME280;36844;51.898;-0.874;2023-05-31T13:21:27;101580.47;;;19.09;
46015;BME280;36844;51.898;-0.874;2023-05-31T13:23:53;101570.34;;;19.02;
46015;BME280;36844;51.898;-0.874;2023-05-31T13:26:19;101599.78;;;19.18;
46015;BME280;36844;51.898;-0.874;2023-05-31T13:28:45;101576.56;;;19.10;
46015;BME280;36844;51.898;-0.874;2023-05-31T13:31:11;101522.72;;;18.73;
46015;BME280;36844;51.898;-0.874;2023-05-31T13:33:36;101582.75;;;19.10;
46015;BME280;36844;51.898;-0.874;2023-05-31T13:36:02;101577.34;;;19.07;
46015;BME280;36844;51.898;-0.874;2023-05-31T13:38:27;101586.25;;;19.11;
46015;BME280;36844;51.898;-0.874;2023-05-31T13:40:53;101544.41;;;18.87;
46015;BME280;36844;51.898;-0.874;2023-05-31T13:43:21;101579.72;;;19.12;
46015;BME280;36844;51.898;-0.874;2023-05-31T13:45:51;101571.91;;;19.03;
46015;BME280;36844;51.898;-0.874;2023-05-31T13:48:18;101568.81;;;19.01;
46015;BME280;36844;51.898;-0.874;2023-05-31T13:50:44;101579.72;;;19.12;
46015;BME280;36844;51.898;-0.874;2023-05-31T13:53:09;101572.72;;;19.07;
46015;BME280;36844;51.898;-0.874;2023-05-31T13:55:35;101584.69;;;19.13;
46015;BME280;36844;51.898;-0.874;2023-05-31T13:58:02;101553.38;;;18.98;